Time;durP1;ratioP1;P1;durP2;ratioP2;P2;SDS_P1;SDS_P2;PMS_P1;PMS_P2;Temp;Humidity;BMP_temperature;BMP_pressure;BME280_temperature;BME280_humidity;BME280_pressure;Samples;Min_cycle;Max_cycle;Signal;HPM_P1;HPM_P2
2022/07/05 00:02:00;;;;;;;2.40;1.17;;;18.20;99.90;;;-141.84;47.56;20309.75;5071017;28;20540;-59
2022/07/05 00:04:28;;;;;;;1.27;1.13;;;18.30;99.90;;;-141.84;47.83;20317.91;5071124;28;20304;-61
2022/07/05 00:09:42;;;;;;;1.25;1.00;;;18.20;99.90;;;-141.84;48.05;20295.53;5070601;28;20681;-59
2022/07/05 00:12:12;;;;;;;1.00;0.95;;;18.20;99.90;;;-141.84;48.17;20273.19;5071305;28;20215;-59
2022/07/05 00:14:43;;;;;;;1.90;1.10;;;18.20;99.90;;;-141.84;48.33;20244.72;5070883;28;20232;-58
2022/07/05 00:17:13;;;;;;;1.13;1.00;;;18.10;99.90;;;-141.84;48.43;20273.19;5070515;28;20232;-59
2022/07/05 00:19:42;;;;;;;1.50;0.98;;;18.10;99.90;;;-141.84;48.48;20285.38;5070591;28;20727;-58
2022/07/05 00:22:10;;;;;;;3.15;1.00;;;18.10;99.90;;;-141.84;48.82;20238.63;5063197;28;20225;-58
2022/07/05 00:24:39;;;;;;;1.10;1.00;;;18.10;99.90;;;-141.84;48.91;20252.84;5050796;28;20233;-60
2022/07/05 00:27:07;;;;;;;2.45;1.00;;;18.00;99.90;;;-141.84;49.19;20236.59;5051318;28;20225;-59
2022/07/05 00:29:35;;;;;;;2.00;1.17;;;18.00;99.90;;;-141.84;49.00;20230.50;5050509;28;20796;-59
2022/07/05 00:32:06;;;;;;;1.90;1.20;;;18.00;99.90;;;-141.84;49.15;20236.59;5050431;28;20244;-59
2022/07/05 00:34:35;;;;;;;1.85;1.10;;;18.00;99.90;;;-141.84;48.94;20279.28;5050435;28;20319;-60
2022/07/05 00:37:03;;;;;;;3.45;1.10;;;17.90;99.90;;;-141.84;49.09;20220.34;5050656;28;20394;-59
2022/07/05 00:39:31;;;;;;;1.33;0.90;;;18.00;99.90;;;-141.84;49.03;20228.47;5050135;28;20244;-58
2022/07/05 00:42:01;;;;;;;1.13;1.00;;;17.90;99.90;;;-141.84;49.10;20263.00;5051196;28;20296;-59
2022/07/05 00:44:32;;;;;;;1.48;1.10;;;17.90;99.90;;;-141.84;49.38;20234.56;5050552;28;20225;-59
2022/07/05 00:47:00;;;;;;;1.77;1.00;;;17.90;99.90;;;-141.84;49.28;20258.94;5050407;28;20312;-59
2022/07/05 00:49:30;;;;;;;1.10;1.00;;;17.90;99.90;;;-141.84;49.06;20281.31;5050337;28;20666;-60
2022/07/05 00:51:59;;;;;;;1.42;1.00;;;17.80;99.90;;;-141.84;49.21;20232.53;5049647;28;20229;-60
2022/07/05 00:54:49;;;;;;;2.45;1.20;;;17.80;99.90;;;-141.84;49.37;20218.31;5050404;28;20248;-58
2022/07/05 00:57:20;;;;;;;1.33;0.98;;;17.70;99.90;;;-141.84;49.61;20214.22;5050144;28;20659;-59
2022/07/05 00:59:48;;;;;;;1.65;1.20;;;17.70;99.90;;;-141.84;49.90;20238.63;5050849;28;20296;-59
2022/07/05 01:02:19;;;;;;;2.47;1.10;;;17.60;99.90;;;-141.84;50.47;20185.78;5050102;28;20229;-60
2022/07/05 01:04:51;;;;;;;3.33;1.30;;;17.60;99.90;;;-141.84;51.60;20187.81;5050174;28;20294;-59
2022/07/05 01:07:22;;;;;;;1.50;1.40;;;17.50;99.90;;;-141.84;52.77;20139.03;5050178;28;20671;-60
2022/07/05 01:09:50;;;;;;;1.85;1.40;;;17.50;99.90;;;-141.84;54.36;20098.38;5050258;28;20272;-61
2022/07/05 01:12:19;;;;;;;2.55;1.40;;;17.40;99.90;;;-141.84;55.23;20096.34;5050299;28;20248;-60
2022/07/05 01:14:48;;;;;;;2.17;1.50;;;17.30;99.90;;;-141.84;56.46;20049.59;5050908;28;20269;-59
2022/07/05 01:17:17;;;;;;;1.90;1.70;;;17.20;99.90;;;-141.84;57.46;20057.72;5050191;28;20229;-59
2022/07/05 01:19:46;;;;;;;2.67;1.50;;;17.10;99.90;;;-141.84;57.28;20031.31;5051843;28;20304;-59
2022/07/05 01:22:19;;;;;;;1.88;1.48;;;17.10;99.90;;;-141.84;57.37;20049.59;5070174;28;20306;-59
2022/07/05 01:24:51;;;;;;;1.50;1.40;;;17.10;99.90;;;-141.84;57.33;20023.19;5070226;28;20215;-58
2022/07/05 01:27:20;;;;;;;2.38;1.50;;;17.10;99.90;;;-141.84;57.64;20025.22;5070508;28;20189;-59
2022/07/05 01:29:49;;;;;;;1.85;1.65;;;17.10;99.90;;;-141.84;57.24;20045.53;5070683;28;20346;-60
2022/07/05 01:32:17;;;;;;;3.67;1.80;;;17.10;99.90;;;-141.84;57.73;20000.81;5069996;28;20724;-59
2022/07/05 01:34:46;;;;;;;1.48;1.38;;;17.00;99.90;;;-141.84;56.67;20037.41;5070250;28;20659;-60
2022/07/05 01:37:15;;;;;;;2.45;1.52;;;17.00;99.90;;;-141.84;56.42;20021.16;5070247;28;20256;-59
2022/07/05 01:39:44;;;;;;;2.92;1.50;;;17.00;99.90;;;-141.84;57.01;20059.75;5069894;28;20248;-58
2022/07/05 01:42:14;;;;;;;1.60;1.40;;;17.00;99.90;;;-141.84;57.48;19996.75;5070725;28;20205;-58
2022/07/05 01:44:42;;;;;;;2.00;1.42;;;16.90;99.90;;;-141.84;58.25;19976.44;5070018;28;20220;-59
2022/07/05 01:47:11;;;;;;;1.42;1.15;;;16.70;99.90;;;-141.84;57.85;19988.63;5069870;28;20736;-59
2022/07/05 01:49:46;;;;;;;1.80;1.52;;;16.70;99.90;;;-141.84;57.78;19986.59;5069878;28;20225;-59
2022/07/05 01:52:17;;;;;;;2.30;1.35;;;16.60;99.90;;;-141.84;57.02;19982.53;5070110;28;20228;-60
2022/07/05 01:54:45;;;;;;;5.13;1.50;;;16.60;99.90;;;-141.84;56.46;20010.97;5069876;28;20251;-58
2022/07/05 01:57:16;;;;;;;1.20;1.10;;;16.60;99.90;;;-141.84;56.58;20021.16;5070600;28;20204;-59
2022/07/05 01:59:44;;;;;;;1.45;1.30;;;16.60;99.90;;;-141.84;56.38;20017.09;5070151;28;20212;-59
2022/07/05 02:02:12;;;;;;;2.72;1.30;;;16.60;99.90;;;-141.84;56.51;20045.53;5069621;28;20310;-59
2022/07/05 02:04:45;;;;;;;2.45;1.40;;;16.50;99.90;;;-141.84;56.37;19988.63;5072458;28;20228;-60
2022/07/05 02:07:15;;;;;;;1.40;1.30;;;16.60;99.90;;;-141.84;56.56;20002.84;5073661;28;20236;-60
2022/07/05 02:09:43;;;;;;;2.25;1.45;;;16.60;99.90;;;-141.84;56.34;19986.59;5073233;28;20217;-61
2022/07/05 02:12:11;;;;;;;1.10;1.02;;;16.50;99.90;;;-141.84;56.41;19990.66;5073724;28;20573;-58
2022/07/05 02:14:41;;;;;;;1.95;1.27;;;16.50;99.90;;;-141.84;57.03;19972.38;5065684;28;20725;-58
2022/07/05 02:17:09;;;;;;;1.33;1.20;;;16.40;99.90;;;-141.84;56.75;19982.53;5053235;28;20317;-59
2022/07/05 02:19:39;;;;;;;3.38;1.50;;;16.40;99.90;;;-141.84;57.15;19943.91;5053967;28;20728;-59
2022/07/05 02:22:08;;;;;;;2.40;1.42;;;16.30;99.90;;;-141.84;56.71;19974.41;5073225;28;20255;-60
2022/07/05 02:24:36;;;;;;;2.08;1.20;;;16.40;99.90;;;-141.84;56.76;19972.38;5073023;28;20598;-60
2022/07/05 02:27:05;;;;;;;2.05;1.17;;;16.40;99.90;;;-141.84;56.75;19962.19;5073793;28;20228;-59
2022/07/05 02:29:33;;;;;;;2.25;1.33;;;16.30;99.90;;;-141.84;57.39;19972.38;5073153;28;20235;-59
2022/07/05 02:32:03;;;;;;;1.40;1.17;;;16.30;99.90;;;-141.84;57.76;19933.75;5072766;28;20315;-59
2022/07/05 02:34:31;;;;;;;2.17;1.58;;;16.20;99.90;;;-141.84;57.87;19915.47;5072724;28;20231;-59
2022/07/05 02:37:00;;;;;;;1.65;1.27;;;16.20;99.90;;;-141.84;58.14;19919.53;5073224;28;20303;-58
2022/07/05 02:39:28;;;;;;;2.28;1.50;;;16.30;99.90;;;-141.84;57.24;19978.47;5072789;28;20204;-60
2022/07/05 02:41:56;;;;;;;1.40;1.30;;;16.20;99.90;;;-141.84;57.38;19925.63;5073488;28;20196;-59
2022/07/05 02:44:24;;;;;;;2.63;1.70;;;16.20;99.90;;;-141.84;57.42;19931.72;5072761;28;20299;-60
2022/07/05 02:46:52;;;;;;;1.65;1.50;;;16.20;99.90;;;-141.84;57.48;19933.75;5072715;28;20319;-59
2022/07/05 02:49:22;;;;;;;3.05;1.42;;;16.30;99.90;;;-141.84;57.46;19980.50;5072763;28;20949;-60
2022/07/05 02:51:50;;;;;;;1.55;1.20;;;16.30;99.90;;;-141.84;58.18;19943.91;5072866;28;20231;-58
2022/07/05 02:54:18;;;;;;;1.65;1.33;;;16.30;99.90;;;-141.84;57.60;19952.03;5072285;28;20201;-60
2022/07/05 02:56:46;;;;;;;2.20;1.52;;;16.30;99.90;;;-141.84;57.51;19927.66;5072755;28;20727;-59
2022/07/05 02:59:14;;;;;;;2.13;1.70;;;16.20;99.90;;;-141.84;57.97;19943.91;5072305;28;20538;-60
2022/07/05 03:01:43;;;;;;;1.77;1.30;;;16.20;99.90;;;-141.84;57.59;19925.63;5072141;28;20228;-60
2022/07/05 03:04:11;;;;;;;2.55;1.40;;;16.20;99.90;;;-141.84;57.80;19891.06;5072343;28;20763;-60
2022/07/05 03:06:40;;;;;;;2.28;1.60;;;16.20;99.90;;;-141.84;56.93;19925.63;5072324;28;20244;-60
2022/07/05 03:09:09;;;;;;;4.65;1.50;;;16.20;99.90;;;-141.84;56.46;19891.06;5072480;28;20251;-59
2022/07/05 03:11:37;;;;;;;3.13;1.27;;;16.30;99.90;;;-141.84;56.27;19960.16;5058392;28;20271;-59
2022/07/05 03:14:05;;;;;;;1.50;1.40;;;16.20;99.90;;;-141.84;56.09;19972.38;5052244;28;20229;-61
2022/07/05 03:16:33;;;;;;;2.05;1.42;;;16.20;99.90;;;-141.84;55.31;19915.47;5051259;28;20374;-60
2022/07/05 03:19:02;;;;;;;2.95;1.77;;;16.30;99.90;;;-141.84;54.57;19992.69;5052064;28;20244;-59
2022/07/05 03:21:30;;;;;;;2.22;1.63;;;16.30;99.90;;;-141.84;54.95;19960.16;5068055;28;20254;-59
2022/07/05 03:23:59;;;;;;;3.63;1.70;;;16.30;99.90;;;-141.84;55.56;19962.19;5072594;28;20204;-60
2022/07/05 03:26:27;;;;;;;2.42;1.48;;;16.40;99.90;;;-141.84;54.79;19992.69;5071650;28;20353;-59
2022/07/05 03:28:56;;;;;;;2.65;1.80;;;16.40;99.90;;;-141.84;54.51;19988.63;5071820;28;20232;-61
2022/07/05 03:31:24;;;;;;;2.97;1.73;;;16.40;99.90;;;-141.84;54.68;19970.34;5071477;28;20260;-59
2022/07/05 03:33:52;;;;;;;3.80;1.77;;;16.50;99.90;;;-141.84;55.38;19895.13;5071526;28;20221;-61
2022/07/05 03:36:20;;;;;;;3.72;1.77;;;16.40;99.90;;;-141.84;54.57;20013.00;5071777;28;20201;-59
2022/07/05 03:38:49;;;;;;;3.38;1.67;;;16.50;99.90;;;-141.84;54.67;19998.78;5072299;28;20251;-59
2022/07/05 03:41:18;;;;;;;1.60;1.48;;;16.40;99.90;;;-141.84;55.59;19964.25;5071479;28;20278;-59
2022/07/05 03:43:46;;;;;;;3.10;1.50;;;16.50;99.90;;;-141.84;55.97;19956.09;5071673;28;20256;-60
2022/07/05 03:46:14;;;;;;;2.30;1.77;;;16.40;99.90;;;-141.84;55.77;19945.94;5071513;28;20274;-60
2022/07/05 03:48:43;;;;;;;2.95;1.70;;;16.40;99.90;;;-141.84;56.30;19931.72;5071651;28;20236;-61
2022/07/05 03:51:11;;;;;;;3.25;1.83;;;16.30;99.90;;;-141.84;56.65;19990.66;5071902;28;20260;-60
2022/07/05 03:53:39;;;;;;;4.82;1.85;;;16.40;99.90;;;-141.84;55.73;19956.09;5071087;28;20228;-58
2022/07/05 03:56:07;;;;;;;3.75;1.98;;;16.40;99.90;;;-141.84;56.44;19958.13;5071214;28;20274;-59
2022/07/05 03:58:39;;;;;;;2.22;1.90;;;16.30;99.90;;;-141.84;56.43;19945.94;5071417;28;20232;-59
2022/07/05 04:01:07;;;;;;;2.00;1.73;;;16.30;99.90;;;-141.84;56.93;19978.47;5072241;28;20715;-59
2022/07/05 04:03:36;;;;;;;2.17;1.98;;;16.30;99.90;;;-141.84;57.65;19917.50;5071402;28;20818;-59
2022/07/05 04:06:09;;;;;;;3.10;2.25;;;16.30;99.90;;;-141.84;56.20;19972.38;5071387;28;20189;-58
2022/07/05 04:08:37;;;;;;;5.20;2.35;;;16.30;99.90;;;-141.84;56.11;19980.50;5070500;28;20711;-59
2022/07/05 04:11:07;;;;;;;6.22;1.92;;;16.40;99.90;;;-141.84;56.54;19954.06;5070826;28;20248;-58
2022/07/05 04:13:35;;;;;;;3.13;2.10;;;16.40;99.90;;;-141.84;57.29;19947.97;5070759;28;20248;-58
2022/07/05 04:16:05;;;;;;;3.30;2.10;;;16.40;99.90;;;-141.84;57.17;19929.69;5070799;28;20224;-60
2022/07/05 04:18:34;;;;;;;3.28;1.92;;;16.40;99.90;;;-141.84;58.02;19929.69;5071046;28;20224;-59
2022/07/05 04:21:02;;;;;;;3.22;1.90;;;16.40;99.90;;;-141.84;57.48;19964.25;5071407;28;20258;-59
2022/07/05 04:23:30;;;;;;;3.75;2.10;;;16.50;99.90;;;-141.84;57.16;19947.97;5070578;28;20248;-58
2022/07/05 04:26:01;;;;;;;3.70;2.22;;;16.50;99.90;;;-141.84;56.54;19935.78;5070649;28;20224;-61
2022/07/05 04:28:30;;;;;;;4.20;1.88;;;16.60;99.90;;;-141.84;57.31;19976.44;5069896;28;20252;-58
2022/07/05 04:30:59;;;;;;;4.47;2.25;;;16.70;99.90;;;-141.84;56.55;19990.66;5070332;28;20248;-58
2022/07/05 04:33:29;;;;;;;8.52;2.60;;;16.80;99.90;;;-141.84;56.94;20000.81;5070235;28;20239;-59
2022/07/05 04:35:57;;;;;;;3.38;2.17;;;16.80;99.90;;;-141.84;56.58;20000.81;5071607;28;20209;-59
2022/07/05 04:38:25;;;;;;;3.13;1.80;;;16.80;99.90;;;-141.84;56.52;19992.69;5070647;28;20303;-59
2022/07/05 04:40:53;;;;;;;2.80;2.33;;;16.90;99.90;;;-141.84;57.03;20015.03;5070848;28;20593;-58
2022/07/05 04:43:21;;;;;;;4.45;2.10;;;17.00;99.90;;;-141.84;56.75;20015.03;5070447;28;20236;-58
2022/07/05 04:45:50;;;;;;;3.72;2.30;;;17.10;99.90;;;-141.84;55.60;20043.50;5070316;28;20220;-57
2022/07/05 04:48:23;;;;;;;4.55;2.30;;;17.20;99.90;;;-141.84;55.45;20061.78;5070671;28;20625;-60
2022/07/05 04:50:53;;;;;;;2.63;2.20;;;17.30;99.90;;;-141.84;54.46;20094.31;5071108;28;20232;-58
2022/07/05 04:53:21;;;;;;;2.78;2.38;;;17.40;99.90;;;-141.84;54.32;20145.13;5069954;28;20611;-58
2022/07/05 04:55:49;;;;;;;3.50;2.10;;;17.60;99.90;;;-141.84;50.90;20372.78;5070751;28;20279;-59
2022/07/05 04:58:18;;;;;;;4.43;1.90;;;18.40;99.90;;;-141.84;46.18;20728.50;5070194;28;20221;-59
2022/07/05 05:00:46;;;;;;;4.32;2.25;;;19.70;99.90;;;-141.84;40.36;21145.25;5070323;28;20346;-59
2022/07/05 05:03:14;;;;;;;2.63;1.98;;;21.30;99.90;;;-141.84;37.17;21474.63;5070618;28;20193;-59
2022/07/05 05:05:43;;;;;;;2.88;2.10;;;22.60;99.90;;;-141.84;34.34;21834.53;5070402;28;20223;-59
2022/07/05 05:08:12;;;;;;;4.28;2.38;;;23.80;99.90;;;-141.84;33.36;22001.28;5070053;28;20235;-60
2022/07/05 05:10:40;;;;;;;3.13;2.25;;;24.80;99.90;;;-141.84;32.63;22131.41;5070453;28;20678;-59
2022/07/05 05:13:08;;;;;;;3.10;2.70;;;25.10;99.90;;;-141.84;31.83;22227.00;5070026;28;20497;-58
2022/07/05 05:15:37;;;;;;;4.72;2.40;;;26.00;99.90;;;-141.84;31.39;22273.78;5070040;28;20680;-60
2022/07/05 05:18:05;;;;;;;2.78;1.85;;;26.20;99.90;;;-141.84;31.40;22253.44;5070812;28;20216;-61
2022/07/05 05:20:33;;;;;;;2.60;2.35;;;26.50;99.90;;;-141.84;31.73;22227.00;5070192;28;20331;-59
2022/07/05 05:23:07;;;;;;;3.28;2.30;;;26.30;99.90;;;-141.84;31.15;22261.56;5070069;28;20230;-58
2022/07/05 05:25:37;;;;;;;4.18;2.38;;;25.90;99.90;;;-141.84;31.24;22277.84;5070346;28;20696;-59
2022/07/05 05:28:05;;;;;;;2.47;2.20;;;25.70;99.90;;;-141.84;32.07;22149.72;5070502;28;20227;-59
2022/07/05 05:30:33;;;;;;;2.65;2.08;;;25.40;99.90;;;-141.84;31.91;22184.28;5070164;28;20284;-59
2022/07/05 05:33:01;;;;;;;3.40;2.30;;;25.80;99.90;;;-141.84;32.34;22123.28;5070181;28;20303;-59
2022/07/05 05:35:30;;;;;;;3.42;2.00;;;25.80;99.90;;;-141.84;32.65;22070.41;5070097;28;20389;-59
2022/07/05 05:37:58;;;;;;;3.63;2.20;;;25.60;99.90;;;-141.84;32.65;22078.53;5069773;28;20315;-59
2022/07/05 05:40:27;;;;;;;4.75;2.40;;;25.60;99.90;;;-141.84;33.56;21946.38;5073989;28;20308;-59
2022/07/05 05:42:57;;;;;;;2.72;2.50;;;25.40;99.90;;;-141.84;34.95;21755.22;5073926;28;20595;-59
2022/07/05 05:45:26;;;;;;;4.00;2.60;;;25.00;99.90;;;-141.84;36.10;21543.75;5073808;28;20207;-62
2022/07/05 05:47:56;;;;;;;3.78;2.30;;;24.30;99.90;;;-141.84;38.14;21346.53;5074554;28;20291;-59
2022/07/05 05:50:28;;;;;;;2.70;2.50;;;23.70;99.90;;;-141.84;40.01;21173.72;5073781;28;20229;-59
2022/07/05 05:52:57;;;;;;;2.97;2.60;;;23.40;99.90;;;-141.84;41.63;21035.47;5073498;28;20760;-60
2022/07/05 05:55:28;;;;;;;3.50;2.92;;;22.90;99.90;;;-141.84;42.90;20952.13;5073847;28;20216;-60
2022/07/05 05:58:10;;;;;;;3.30;2.40;;;22.60;99.90;;;-141.84;43.81;20878.94;5073457;28;20222;-59
2022/07/05 06:00:39;;;;;;;3.97;2.33;;;22.20;99.90;;;-141.84;44.21;20866.75;5073477;28;20308;-59
2022/07/05 06:03:07;;;;;;;3.22;2.90;;;21.90;99.90;;;-141.84;44.51;20817.94;5074203;28;20420;-59
2022/07/05 06:05:36;;;;;;;4.93;2.60;;;22.00;99.90;;;-141.84;44.74;20769.16;5073405;28;20248;-59
2022/07/05 06:08:04;;;;;;;5.32;2.78;;;21.80;99.90;;;-141.84;45.27;20740.69;5073302;28;20712;-58
2022/07/05 06:10:35;;;;;;;4.55;3.00;;;21.50;99.90;;;-141.84;45.47;20728.50;5073620;28;20235;-60
2022/07/05 06:13:08;;;;;;;4.15;2.90;;;21.40;99.90;;;-141.84;45.95;20702.09;5073113;28;20432;-59
2022/07/05 06:15:36;;;;;;;3.13;2.90;;;21.30;99.90;;;-141.84;46.41;20671.59;5073334;28;20177;-59
2022/07/05 06:18:05;;;;;;;4.10;3.00;;;21.20;99.90;;;-141.84;45.89;20691.91;5073789;28;20319;-60
2022/07/05 06:20:37;;;;;;;4.53;3.03;;;21.30;99.90;;;-141.84;46.39;20681.75;5073147;28;20221;-60
2022/07/05 06:23:07;;;;;;;4.93;3.47;;;21.30;99.90;;;-141.84;46.47;20714.28;5072897;28;20220;-59
2022/07/05 06:25:36;;;;;;;6.38;2.95;;;21.30;99.90;;;-141.84;45.59;20704.13;5073322;28;20224;-59
2022/07/05 06:28:08;;;;;;;3.13;2.92;;;21.40;99.90;;;-141.84;45.59;20702.09;5073069;28;20258;-59
2022/07/05 06:30:38;;;;;;;5.13;2.65;;;21.50;99.90;;;-141.84;45.35;20781.38;5073173;28;20189;-59
2022/07/05 06:33:07;;;;;;;3.55;2.67;;;21.70;99.90;;;-141.84;44.94;20789.50;5073351;28;20516;-59
2022/07/05 06:35:36;;;;;;;5.35;3.30;;;21.80;99.90;;;-141.84;44.70;20769.16;5072861;28;20307;-59
2022/07/05 06:38:08;;;;;;;5.00;2.47;;;21.80;99.90;;;-141.84;45.32;20820.00;5072770;28;20276;-60
2022/07/05 06:40:38;;;;;;;3.78;3.15;;;21.80;99.90;;;-141.84;44.75;20803.72;5072841;28;20585;-59
2022/07/05 06:43:10;;;;;;;3.08;2.78;;;22.00;99.90;;;-141.84;44.55;20797.63;5073055;28;20248;-60
2022/07/05 06:45:39;;;;;;;5.68;2.90;;;21.80;99.90;;;-141.84;45.20;20799.66;5072800;28;20311;-59
2022/07/05 06:48:09;;;;;;;6.15;2.92;;;21.90;99.90;;;-141.84;44.81;20793.56;5073377;28;20231;-58
2022/07/05 06:50:40;;;;;;;4.65;3.30;;;21.90;99.90;;;-141.84;44.51;20846.41;5071454;28;20247;-59
2022/07/05 06:53:10;;;;;;;3.35;2.80;;;22.00;99.90;;;-141.84;45.14;20787.47;5072605;28;20225;-59
2022/07/05 06:55:43;;;;;;;3.25;2.40;;;21.90;99.90;;;-141.84;45.14;20822.03;5072591;28;20690;-59
2022/07/05 06:58:20;;;;;;;4.50;2.58;;;21.80;99.90;;;-141.84;46.06;20763.06;5073628;28;20224;-59
2022/07/05 07:00:48;;;;;;;4.68;3.00;;;21.90;99.90;;;-141.84;45.37;20797.63;5072643;28;20224;-60
2022/07/05 07:03:36;;;;;;;3.38;3.05;;;21.80;99.90;;;-141.84;44.93;20769.16;5072243;28;20204;-60
2022/07/05 07:06:24;;;;;;;5.05;2.30;;;21.70;99.90;;;-141.84;45.55;20767.13;5072337;28;20204;-58
2022/07/05 07:11:37;;;;;;;3.30;2.88;;;21.70;99.90;;;-141.84;45.88;20765.09;5072273;28;20225;-59
2022/07/05 07:14:06;;;;;;;3.10;2.53;;;21.80;99.90;;;-141.84;44.88;20799.66;5072096;28;20323;-59
2022/07/05 07:16:35;;;;;;;3.25;2.60;;;21.90;99.90;;;-141.84;45.09;20868.78;5072065;28;20771;-59
2022/07/05 07:19:03;;;;;;;3.53;2.60;;;21.90;99.90;;;-141.84;44.84;20852.50;5072325;28;20317;-59
2022/07/05 07:21:42;;;;;;;3.80;2.50;;;22.10;99.90;;;-141.84;44.66;20852.50;5072161;28;20231;-59
2022/07/05 07:24:11;;;;;;;3.72;2.10;;;22.20;99.90;;;-141.84;44.74;20895.19;5072312;28;20213;-59
2022/07/05 07:29:30;;;;;;;3.35;2.50;;;22.60;99.90;;;-141.84;44.71;20887.06;5071975;28;20282;-59
2022/07/05 07:32:00;;;;;;;4.15;2.47;;;22.60;99.90;;;-141.84;43.48;20903.34;5071906;28;20346;-60
2022/07/05 07:34:29;;;;;;;3.53;2.13;;;22.50;99.90;;;-141.84;44.28;20878.94;5071626;28;20255;-59
2022/07/05 07:36:58;;;;;;;3.28;2.40;;;22.40;99.90;;;-141.84;44.57;20864.72;5072063;28;20727;-59
2022/07/05 07:39:28;;;;;;;4.18;2.58;;;22.40;99.90;;;-141.84;44.71;20838.28;5071737;28;20637;-59
2022/07/05 07:41:55;;;;;;;4.57;2.70;;;22.30;99.90;;;-141.84;44.20;20872.84;5072530;28;20193;-59
2022/07/05 07:44:23;;;;;;;4.68;2.50;;;22.30;99.90;;;-141.84;44.89;20824.06;5071380;28;20235;-60
2022/07/05 07:46:53;;;;;;;3.80;2.50;;;22.20;99.90;;;-141.84;45.00;20805.75;5071365;28;20753;-59
2022/07/05 07:49:21;;;;;;;4.55;1.92;;;22.20;99.90;;;-141.84;45.38;20824.06;5071743;28;20259;-59
2022/07/05 07:51:52;;;;;;;3.10;2.50;;;22.20;99.90;;;-141.84;44.54;20870.81;5071531;28;20227;-60
2022/07/05 07:54:20;;;;;;;4.05;2.47;;;22.30;99.90;;;-141.84;43.90;20876.91;5071631;28;20262;-59
2022/07/05 07:56:48;;;;;;;3.80;2.63;;;22.40;99.90;;;-141.84;44.62;20846.41;5072101;28;20284;-58
2022/07/05 07:59:16;;;;;;;2.80;2.30;;;22.20;99.90;;;-141.84;44.96;20850.47;5071785;28;20235;-59
2022/07/05 08:01:44;;;;;;;3.33;1.80;;;22.20;99.90;;;-141.84;42.85;20907.41;5071218;28;20235;-59
2022/07/05 08:04:15;;;;;;;4.03;2.13;;;22.30;99.90;;;-141.84;43.44;20864.72;5071340;28;20228;-59
2022/07/05 08:06:45;;;;;;;4.55;2.58;;;22.20;99.90;;;-141.84;43.55;20860.66;5071458;28;20221;-60
2022/07/05 08:09:13;;;;;;;2.53;1.80;;;22.10;99.90;;;-141.84;43.87;20862.69;5071625;28;20709;-59
2022/07/05 08:11:46;;;;;;;1.95;1.75;;;22.10;99.90;;;-141.84;42.92;20866.75;5071193;28;20233;-59
2022/07/05 08:14:16;;;;;;;6.30;2.08;;;22.20;99.90;;;-141.84;42.19;20880.97;5071056;28;20776;-59
2022/07/05 08:16:46;;;;;;;2.40;1.70;;;22.20;99.90;;;-141.84;42.06;20933.81;5070765;28;20970;-59
2022/07/05 08:22:08;;;;;;;2.25;2.05;;;22.30;99.90;;;-141.84;42.13;20911.47;5051129;28;20220;-59
2022/07/05 08:24:39;;;;;;;1.95;1.70;;;22.40;99.90;;;-141.84;41.57;20931.78;5050440;28;20776;-60
2022/07/05 08:27:09;;;;;;;4.72;1.80;;;22.40;99.90;;;-141.84;40.93;20915.53;5060117;28;20247;-60
2022/07/05 08:29:37;;;;;;;4.07;2.00;;;22.40;99.90;;;-141.84;41.03;20899.28;5060532;28;20221;-60
2022/07/05 08:32:09;;;;;;;3.50;1.88;;;22.40;99.90;;;-141.84;41.65;20935.88;5061229;28;20228;-59
2022/07/05 08:34:39;;;;;;;5.03;2.08;;;22.30;99.90;;;-141.84;40.81;20998.88;5063057;28;20229;-59
2022/07/05 08:37:08;;;;;;;4.53;2.10;;;22.50;99.90;;;-141.84;40.67;20984.66;5061074;28;20442;-59
2022/07/05 08:39:42;;;;;;;2.47;1.85;;;22.60;99.90;;;-141.84;40.80;20968.38;5062260;28;20235;-59
2022/07/05 08:42:12;;;;;;;2.92;1.60;;;22.60;99.90;;;-141.84;41.35;20972.47;5051132;28;20214;-60
2022/07/05 08:44:42;;;;;;;1.73;1.63;;;22.60;99.90;;;-141.84;41.39;20970.41;5050502;28;20313;-62
2022/07/05 08:47:16;;;;;;;3.13;1.92;;;22.70;99.90;;;-141.84;40.33;21021.25;5068697;28;20307;-59
2022/07/05 08:49:52;;;;;;;4.75;2.10;;;22.80;99.90;;;-141.84;40.21;21041.56;5068547;28;20220;-60
2022/07/05 08:52:21;;;;;;;6.15;2.10;;;22.90;99.90;;;-141.84;39.67;21039.53;5070336;28;20714;-59
2022/07/05 08:54:52;;;;;;;4.22;1.90;;;22.90;99.90;;;-141.84;40.12;21043.59;5069957;28;20240;-59
2022/07/05 08:57:20;;;;;;;3.03;2.05;;;23.00;99.90;;;-141.84;39.90;21057.84;5070222;28;20209;-60
2022/07/05 08:59:48;;;;;;;2.63;2.00;;;23.00;99.90;;;-141.84;39.69;21055.81;5070812;28;20219;-59
2022/07/05 09:02:18;;;;;;;2.45;1.80;;;23.10;99.90;;;-141.84;40.36;21025.31;5069778;28;20307;-59
2022/07/05 09:04:51;;;;;;;4.97;2.30;;;23.00;99.90;;;-141.84;39.85;21104.59;5069985;28;20785;-58
2022/07/05 09:07:23;;;;;;;2.22;1.75;;;23.10;99.90;;;-141.84;40.42;21070.03;5069866;28;20250;-58
2022/07/05 09:09:52;;;;;;;3.95;1.75;;;23.20;99.90;;;-141.84;40.56;21074.09;5070020;28;20233;-59
2022/07/05 09:12:20;;;;;;;4.32;2.10;;;23.20;99.90;;;-141.84;39.64;21061.91;5070414;28;20227;-59
2022/07/05 09:14:56;;;;;;;4.82;2.30;;;23.20;99.90;;;-141.84;39.55;21122.91;5072097;28;20334;-60
2022/07/05 09:17:26;;;;;;;5.60;2.13;;;23.30;99.90;;;-141.84;39.11;21143.22;5075864;28;20632;-58
2022/07/05 09:20:12;;;;;;;3.67;1.90;;;23.30;99.90;;;-141.84;37.94;21192.03;5077189;28;20199;-58
2022/07/05 09:22:52;;;;;;;2.95;1.55;;;23.40;99.90;;;-141.84;38.22;21222.53;5077195;28;20232;-58
2022/07/05 09:25:23;;;;;;;2.30;1.88;;;23.60;99.90;;;-141.84;37.62;21293.69;5069368;28;20703;-59
2022/07/05 09:27:56;;;;;;;3.78;1.90;;;23.90;99.90;;;-141.84;36.45;21358.75;5076469;28;20759;-58
2022/07/05 09:30:33;;;;;;;3.78;2.10;;;24.20;99.90;;;-141.84;36.64;21438.03;5076314;28;20293;-59
2022/07/05 09:33:08;;;;;;;4.63;2.70;;;24.50;99.90;;;-141.84;35.64;21501.06;5076724;28;20293;-58
2022/07/05 09:35:40;;;;;;;2.25;1.80;;;24.70;99.90;;;-141.84;36.06;21480.72;5075857;28;20731;-58
2022/07/05 09:38:19;;;;;;;2.88;2.10;;;24.80;99.90;;;-141.84;36.37;21464.47;5076626;28;20181;-59
2022/07/05 09:40:50;;;;;;;2.22;1.70;;;24.90;99.90;;;-141.84;36.78;21393.31;5077100;28;20188;-58
2022/07/05 09:43:20;;;;;;;2.95;1.80;;;24.60;99.90;;;-141.84;37.21;21326.22;5076335;28;20639;-59
2022/07/05 09:45:58;;;;;;;2.50;1.75;;;24.40;99.90;;;-141.84;37.98;21283.50;5076062;28;20248;-58
2022/07/05 09:48:28;;;;;;;4.00;2.20;;;24.20;99.90;;;-141.84;37.53;21293.69;5076443;28;20770;-59
2022/07/05 09:51:09;;;;;;;5.60;2.10;;;24.10;99.90;;;-141.84;37.07;21334.34;5076309;28;20727;-58
2022/07/05 09:54:00;;;;;;;4.00;1.90;;;24.20;99.90;;;-141.84;37.47;21342.47;5075596;28;20240;-58
2022/07/05 09:56:45;;;;;;;3.00;1.90;;;24.20;99.90;;;-141.84;37.38;21360.78;5076305;28;20218;-59
2022/07/05 09:59:17;;;;;;;2.42;2.22;;;24.30;99.90;;;-141.84;35.46;21509.19;5076120;28;20188;-58
2022/07/05 10:01:46;;;;;;;3.05;1.90;;;24.70;99.90;;;-141.84;35.24;21525.47;5076253;28;20228;-58
2022/07/05 10:04:14;;;;;;;4.57;1.98;;;24.80;99.90;;;-141.84;35.47;21582.38;5073878;28;20225;-59
2022/07/05 10:06:45;;;;;;;4.05;1.73;;;25.00;99.90;;;-141.84;34.95;21655.59;5075961;28;20676;-53
2022/07/05 10:09:14;;;;;;;2.20;1.60;;;25.30;99.90;;;-141.84;34.77;21743.03;5075508;28;20789;-60
2022/07/05 10:11:45;;;;;;;3.60;1.90;;;25.60;99.90;;;-141.84;34.16;21724.72;5056035;28;20227;-60
2022/07/05 10:14:18;;;;;;;3.92;2.08;;;25.80;99.90;;;-141.84;34.25;21655.59;5055926;28;20205;-58
2022/07/05 10:17:02;;;;;;;5.13;1.83;;;25.60;99.90;;;-141.84;34.25;21647.47;5056464;28;20278;-60
2022/07/05 10:19:41;;;;;;;3.65;1.90;;;25.50;99.90;;;-141.84;34.85;21570.19;5055814;28;20290;-59
2022/07/05 10:22:14;;;;;;;4.43;2.13;;;25.30;99.90;;;-141.84;35.43;21482.75;5057172;28;20308;-59
2022/07/05 10:24:46;;;;;;;2.55;1.80;;;25.10;99.90;;;-141.84;35.53;21462.44;5074821;28;20224;-59
2022/07/05 10:27:18;;;;;;;4.43;2.00;;;24.90;99.90;;;-141.84;35.53;21429.91;5066247;28;20220;-60
2022/07/05 10:29:49;;;;;;;1.70;1.60;;;24.80;99.90;;;-141.84;35.79;21440.06;5072878;28;20231;-59